Time,TemperatureF,DewpointF,PressureIn,WindDirection,WindDirectionDegrees,WindSpeedMPH,WindSpeedGustMPH,Humidity,HourlyPrecipIn,Conditions,Clouds,dailyrainin,SoftwareType,DateUTC
2013-06-15 00:00:00,56.5,53.9,30.04,WSW,247,0.0,0.0,91,0.00,,,0.00,WUHU21623XXSP,2013-06-15 04:00:00,
2013-06-15 00:01:00,56.5,53.9,30.04,WSW,247,0.0,0.0,91,0.00,,,0.00,WUHU21623XXSP,2013-06-15 04:01:00,
2013-06-15 00:02:00,56.5,53.9,30.04,WSW,247,0.0,0.0,91,0.00,,,0.00,WUHU21623XXSP,2013-06-15 04:02:00,
2013-06-15 00:07:00,56.1,53.5,30.04,WSW,247,0.0,0.0,91,0.00,,,0.00,WUHU21623XXSP,2013-06-15 04:07:00,
2013-06-15 00:12:00,55.9,53.3,30.04,WSW,247,0.0,0.0,91,0.00,,,0.00,WUHU21623XXSP,2013-06-15 04:12:00,
2013-06-15 00:17:00,55.9,53.6,30.04,WSW,247,0.0,0.0,92,0.00,,,0.00,WUHU21623XXSP,2013-06-15 04:17:00,
2013-06-15 00:22:00,55.9,53.6,30.05,WSW,247,0.0,0.0,92,0.00,,,0.00,WUHU21623XXSP,2013-06-15 04:22:00,
2013-06-15 00:27:00,55.9,53.6,30.05,WSW,247,0.0,0.0,92,0.00,,,0.00,WUHU21623XXSP,2013-06-15 04:27:00,
2013-06-15 00:32:00,55.8,53.5,30.04,WSW,247,0.0,0.0,92,0.00,,,0.00,WUHU21623XXSP,2013-06-15 04:32:00,
2013-06-15 00:37:00,55.6,53.3,30.04,WSW,247,0.0,0.0,92,0.00,,,0.00,WUHU21623XXSP,2013-06-15 04:37:00,
2013-06-15 00:42:00,55.2,52.9,30.05,WSW,247,0.0,0.0,92,0.00,,,0.00,WUHU21623XXSP,2013-06-15 04:42:00,
2013-06-15 00:47:00,55.0,52.7,30.05,WSW,247,0.0,0.0,92,0.00,,,0.00,WUHU21623XXSP,2013-06-15 04:47:00,
2013-06-15 00:52:00,54.7,52.4,30.04,WSW,247,0.0,0.0,92,0.00,,,0.00,WUHU21623XXSP,2013-06-15 04:52:00,
2013-06-15 00:57:00,54.5,52.2,30.04,WSW,247,0.0,0.0,92,0.00,,,0.00,WUHU21623XXSP,2013-06-15 04:57:00,
2013-06-15 01:02:00,54.3,52.0,30.04,WSW,247,0.0,0.0,92,0.00,,,0.00,WUHU21623XXSP,2013-06-15 05:02:00,
2013-06-15 01:10:00,54.3,52.0,30.04,WSW,247,0.0,0.0,92,0.00,,,0.00,WUHU21623XXSP,2013-06-15 05:10:00,
2013-06-15 01:15:00,53.8,51.5,30.04,WSW,247,0.0,0.0,92,0.00,,,0.00,WUHU21623XXSP,2013-06-15 05:15:00,
2013-06-15 01:20:00,53.4,51.4,30.04,WSW,247,0.0,0.0,93,0.00,,,0.00,WUHU21623XXSP,2013-06-15 05:20:00,
2013-06-15 01:25:00,53.4,51.4,30.04,WSW,247,0.0,0.0,93,0.00,,,0.00,WUHU21623XXSP,2013-06-15 05:25:00,
2013-06-15 01:30:00,53.1,51.0,30.04,WSW,247,0.0,0.0,93,0.00,,,0.00,WUHU21623XXSP,2013-06-15 05:30:00,
2013-06-15 01:35:00,52.9,50.9,30.04,WSW,247,0.0,0.0,93,0.00,,,0.00,WUHU21623XXSP,2013-06-15 05:35:00,
2013-06-15 01:40:00,52.9,50.9,30.04,WSW,247,0.0,0.0,93,0.00,,,0.00,WUHU21623XXSP,2013-06-15 05:40:00,
2013-06-15 01:45:00,52.7,50.7,30.04,WSW,247,0.0,0.0,93,0.00,,,0.00,WUHU21623XXSP,2013-06-15 05:45:00,
2013-06-15 01:50:00,52.5,50.5,30.05,WSW,247,0.0,0.0,93,0.00,,,0.00,WUHU21623XXSP,2013-06-15 05:50:00,
2013-06-15 01:55:00,52.3,50.3,30.04,WSW,247,0.0,0.0,93,0.00,,,0.00,WUHU21623XXSP,2013-06-15 05:55:00,
2013-06-15 02:00:00,52.3,50.3,30.05,WSW,247,0.0,0.0,93,0.00,,,0.00,WUHU21623XXSP,2013-06-15 06:00:00,
2013-06-15 02:05:00,52.3,50.3,30.05,WSW,247,0.0,0.0,93,0.00,,,0.00,WUHU21623XXSP,2013-06-15 06:05:00,
2013-06-15 02:10:00,52.2,50.1,30.04,WSW,247,0.0,0.0,93,0.00,,,0.00,WUHU21623XXSP,2013-06-15 06:10:00,
2013-06-15 02:15:00,51.8,49.8,30.04,WSW,247,0.0,0.0,93,0.00,,,0.00,WUHU21623XXSP,2013-06-15 06:15:00,
2013-06-15 02:20:00,51.6,49.6,30.03,WSW,247,0.0,0.0,93,0.00,,,0.00,WUHU21623XXSP,2013-06-15 06:20:00,
2013-06-15 02:25:00,51.6,49.6,30.03,WSW,247,0.0,0.0,93,0.00,,,0.00,WUHU21623XXSP,2013-06-15 06:25:00,
2013-06-15 02:30:00,51.6,49.6,30.03,WSW,247,0.0,0.0,93,0.00,,,0.00,WUHU21623XXSP,2013-06-15 06:30:00,
2013-06-15 02:35:00,51.6,49.6,30.03,WSW,247,0.0,0.0,93,0.00,,,0.00,WUHU21623XXSP,2013-06-15 06:35:00,
2013-06-15 02:40:00,51.6,49.6,30.02,WSW,247,0.0,0.0,93,0.00,,,0.00,WUHU21623XXSP,2013-06-15 06:40:00,
2013-06-15 02:45:00,51.6,49.6,30.02,WSW,247,0.0,0.0,93,0.00,,,0.00,WUHU21623XXSP,2013-06-15 06:45:00,
2013-06-15 02:50:00,51.6,49.6,30.02,WSW,247,0.0,0.0,93,0.00,,,0.00,WUHU21623XXSP,2013-06-15 06:50:00,
2013-06-15 02:55:00,51.4,49.4,30.02,WSW,247,0.0,0.0,93,0.00,,,0.00,WUHU21623XXSP,2013-06-15 06:55:00,
2013-06-15 03:00:00,51.4,49.4,30.01,WSW,247,0.0,0.0,93,0.00,,,0.00,WUHU21623XXSP,2013-06-15 07:00:00,
2013-06-15 03:05:00,51.1,49.1,30.02,WSW,247,0.0,0.0,93,0.00,,,0.00,WUHU21623XXSP,2013-06-15 07:05:00,
2013-06-15 03:10:00,50.7,48.7,30.02,WSW,247,0.0,0.0,93,0.00,,,0.00,WUHU21623XXSP,2013-06-15 07:10:00,
2013-06-15 03:15:00,50.7,48.7,30.02,WSW,247,0.0,0.0,93,0.00,,,0.00,WUHU21623XXSP,2013-06-15 07:15:00,
2013-06-15 03:20:00,50.5,48.8,30.02,WSW,247,0.0,0.0,94,0.00,,,0.00,WUHU21623XXSP,2013-06-15 07:20:00,
2013-06-15 03:25:00,50.4,48.6,30.03,WSW,247,0.0,0.0,94,0.00,,,0.00,WUHU21623XXSP,2013-06-15 07:25:00,
2013-06-15 03:30:00,50.2,48.5,30.02,WSW,247,0.0,0.0,94,0.00,,,0.00,WUHU21623XXSP,2013-06-15 07:30:00,
2013-06-15 03:35:00,50.0,48.0,30.02,WSW,247,0.0,0.0,93,0.00,,,0.00,WUHU21623XXSP,2013-06-15 07:35:00,
2013-06-15 03:40:00,49.8,48.1,30.02,WSW,247,0.0,0.0,94,0.00,,,0.00,WUHU21623XXSP,2013-06-15 07:40:00,
2013-06-15 03:45:00,49.8,48.1,30.02,WSW,247,0.0,0.0,94,0.00,,,0.00,WUHU21623XXSP,2013-06-15 07:45:00,
2013-06-15 03:50:00,49.6,48.1,30.02,WSW,247,0.0,0.0,94,0.00,,,0.00,WUHU21623XXSP,2013-06-15 07:50:00,
2013-06-15 03:55:00,49.6,47.9,30.01,WSW,247,0.0,0.0,94,0.00,,,0.00,WUHU21623XXSP,2013-06-15 07:55:00,
2013-06-15 04:00:00,49.8,48.1,30.02,WSW,247,0.0,0.0,94,0.00,,,0.00,WUHU21623XXSP,2013-06-15 08:00:00,
2013-06-15 04:10:00,49.6,47.9,30.02,WSW,247,0.0,0.0,94,0.00,,,0.00,WUHU21623XXSP,2013-06-15 08:10:00,
2013-06-15 04:15:00,49.1,47.4,30.02,WSW,247,0.0,0.0,94,0.00,,,0.00,WUHU21623XXSP,2013-06-15 08:15:00,
2013-06-15 04:20:00,49.1,47.4,30.02,WSW,247,0.0,0.0,94,0.00,,,0.00,WUHU21623XXSP,2013-06-15 08:20:00,
2013-06-15 04:25:00,48.9,47.2,30.02,WSW,247,0.0,0.0,94,0.00,,,0.00,WUHU21623XXSP,2013-06-15 08:25:00,
2013-06-15 04:30:00,48.9,47.2,30.02,WSW,247,0.0,0.0,94,0.00,,,0.00,WUHU21623XXSP,2013-06-15 08:30:00,
2013-06-15 04:35:00,48.7,47.1,30.02,WSW,247,0.0,0.0,94,0.00,,,0.00,WUHU21623XXSP,2013-06-15 08:35:00,
2013-06-15 04:40:00,48.7,47.1,30.02,WSW,247,0.0,0.0,94,0.00,,,0.00,WUHU21623XXSP,2013-06-15 08:40:00,
2013-06-15 04:45:00,48.6,46.9,30.02,WSW,247,0.0,0.0,94,0.00,,,0.00,WUHU21623XXSP,2013-06-15 08:45:00,
2013-06-15 04:50:00,48.6,46.9,30.02,WSW,247,0.0,0.0,94,0.00,,,0.00,WUHU21623XXSP,2013-06-15 08:50:00,
2013-06-15 04:55:00,48.6,46.9,30.02,WSW,247,0.0,0.0,94,0.00,,,0.00,WUHU21623XXSP,2013-06-15 08:55:00,
2013-06-15 05:00:00,48.4,46.7,30.02,WSW,247,0.0,0.0,94,0.00,,,0.00,WUHU21623XXSP,2013-06-15 09:00:00,
2013-06-15 05:05:00,48.4,46.7,30.02,WSW,247,0.0,0.0,94,0.00,,,0.00,WUHU21623XXSP,2013-06-15 09:05:00,
2013-06-15 05:10:00,48.4,46.7,30.02,WSW,247,0.0,0.0,94,0.00,,,0.00,WUHU21623XXSP,2013-06-15 09:10:00,
2013-06-15 05:15:00,47.8,46.2,30.03,WSW,247,0.0,0.0,94,0.00,,,0.00,WUHU21623XXSP,2013-06-15 09:15:00,
2013-06-15 05:20:00,48.0,46.4,30.04,WSW,247,0.0,0.0,94,0.00,,,0.00,WUHU21623XXSP,2013-06-15 09:20:00,
2013-06-15 05:25:00,47.8,46.2,30.03,WSW,247,0.0,0.0,94,0.00,,,0.00,WUHU21623XXSP,2013-06-15 09:25:00,
2013-06-15 05:30:00,47.8,46.2,30.03,WSW,247,0.0,0.0,94,0.00,,,0.00,WUHU21623XXSP,2013-06-15 09:30:00,
2013-06-15 05:35:00,47.8,46.2,30.04,WSW,247,0.0,0.0,94,0.00,,,0.00,WUHU21623XXSP,2013-06-15 09:35:00,
2013-06-15 05:40:00,47.7,46.0,30.04,WSW,247,0.0,0.0,94,0.00,,,0.00,WUHU21623XXSP,2013-06-15 09:40:00,
2013-06-15 05:45:00,47.7,46.0,30.04,SW,225,0.0,0.0,94,0.00,,,0.00,WUHU21623XXSP,2013-06-15 09:45:00,
2013-06-15 05:50:00,47.7,46.0,30.04,SW,225,0.0,0.0,94,0.00,,,0.00,WUHU21623XXSP,2013-06-15 09:50:00,
2013-06-15 05:55:00,48.0,46.4,30.05,SW,225,0.0,0.0,94,0.00,,,0.00,WUHU21623XXSP,2013-06-15 09:55:00,
2013-06-15 06:00:00,48.0,46.4,30.06,WSW,247,0.0,0.0,94,0.00,,,0.00,WUHU21623XXSP,2013-06-15 10:00:00,
2013-06-15 06:05:00,47.8,46.2,30.06,WSW,247,0.0,0.0,94,0.00,,,0.00,WUHU21623XXSP,2013-06-15 10:05:00,
2013-06-15 06:10:00,47.8,46.2,30.05,WSW,247,0.0,0.0,94,0.00,,,0.00,WUHU21623XXSP,2013-06-15 10:10:00,
2013-06-15 06:15:00,48.0,46.4,30.06,WSW,247,0.0,0.0,94,0.00,,,0.00,WUHU21623XXSP,2013-06-15 10:15:00,
2013-06-15 06:20:00,48.7,46.9,30.06,SW,225,0.0,3.4,94,0.00,,,0.00,WUHU21623XXSP,2013-06-15 10:20:00,
2013-06-15 06:25:00,48.9,47.2,30.06,SW,225,0.0,3.4,94,0.00,,,0.00,WUHU21623XXSP,2013-06-15 10:25:00,
2013-06-15 06:30:00,49.1,47.4,30.06,SW,225,0.0,0.0,94,0.00,,,0.00,WUHU21623XXSP,2013-06-15 10:30:00,
2013-06-15 06:35:00,49.5,47.9,30.06,SW,225,0.0,0.0,94,0.00,,,0.00,WUHU21623XXSP,2013-06-15 10:35:00,
2013-06-15 06:40:00,49.8,48.1,30.06,WSW,247,0.0,0.0,94,0.00,,,0.00,WUHU21623XXSP,2013-06-15 10:40:00,
2013-06-15 06:45:00,50.2,48.7,30.06,WSW,247,0.0,0.0,95,0.00,,,0.00,WUHU21623XXSP,2013-06-15 10:45:00,
2013-06-15 06:50:00,50.7,49.0,30.06,WSW,247,0.0,0.0,94,0.00,,,0.00,WUHU21623XXSP,2013-06-15 10:50:00,
2013-06-15 06:55:00,51.3,49.5,30.06,WSW,247,0.0,0.0,94,0.00,,,0.00,WUHU21623XXSP,2013-06-15 10:55:00,
2013-06-15 07:00:00,51.6,49.9,30.06,WSW,247,0.0,0.0,94,0.00,,,0.00,WUHU21623XXSP,2013-06-15 11:00:00,
2013-06-15 07:05:00,52.3,50.6,30.06,WSW,247,0.0,0.0,94,0.00,,,0.00,WUHU21623XXSP,2013-06-15 11:05:00,
2013-06-15 07:10:00,52.5,50.8,30.06,WSW,247,0.0,0.0,94,0.00,,,0.00,WUHU21623XXSP,2013-06-15 11:10:00,
2013-06-15 07:15:00,53.1,51.3,30.07,West,270,0.0,0.0,94,0.00,,,0.00,WUHU21623XXSP,2013-06-15 11:15:00,
2013-06-15 07:20:00,53.4,51.7,30.07,WSW,247,0.0,0.0,94,0.00,,,0.00,WUHU21623XXSP,2013-06-15 11:20:00,
2013-06-15 07:25:00,53.4,51.7,30.06,West,270,0.0,0.0,94,0.00,,,0.00,WUHU21623XXSP,2013-06-15 11:25:00,
2013-06-15 07:30:00,53.8,52.1,30.06,WSW,247,3.6,5.8,94,0.00,,,0.00,WUHU21623XXSP,2013-06-15 11:30:00,
2013-06-15 07:35:00,54.1,52.4,30.06,SW,225,1.6,7.4,94,0.00,,,0.00,WUHU21623XXSP,2013-06-15 11:35:00,
2013-06-15 07:40:00,54.7,53.0,30.06,West,270,0.0,7.4,94,0.00,,,0.00,WUHU21623XXSP,2013-06-15 11:40:00,
2013-06-15 07:45:00,55.6,53.9,30.06,WSW,247,0.0,6.0,94,0.00,,,0.00,WUHU21623XXSP,2013-06-15 11:45:00,
2013-06-15 07:50:00,56.5,54.5,30.07,WSW,247,1.6,8.1,93,0.00,,,0.00,WUHU21623XXSP,2013-06-15 11:50:00,
2013-06-15 07:55:00,57.4,55.7,30.06,WSW,247,6.5,8.1,94,0.00,,,0.00,WUHU21623XXSP,2013-06-15 11:55:00,
2013-06-15 08:00:00,57.9,55.9,30.07,WSW,247,0.0,7.8,93,0.00,,,0.00,WUHU21623XXSP,2013-06-15 12:00:00,
2013-06-15 08:05:00,58.8,56.5,30.07,SW,225,6.7,7.8,92,0.00,,,0.00,WUHU21623XXSP,2013-06-15 12:05:00,
2013-06-15 08:10:00,59.2,56.3,30.07,WNW,292,0.0,7.6,90,0.00,,,0.00,WUHU21623XXSP,2013-06-15 12:10:00,
2013-06-15 08:15:00,59.7,55.5,30.06,West,270,1.1,7.6,86,0.00,,,0.00,WUHU21623XXSP,2013-06-15 12:15:00,
2013-06-15 08:20:00,60.3,55.1,30.06,West,270,0.0,5.1,83,0.00,,,0.00,WUHU21623XXSP,2013-06-15 12:20:00,
2013-06-15 08:25:00,60.6,54.8,30.07,WSW,247,5.8,6.5,81,0.00,,,0.00,WUHU21623XXSP,2013-06-15 12:25:00,
2013-06-15 08:30:00,61.2,54.3,30.08,WNW,292,0.0,6.5,78,0.00,,,0.00,WUHU21623XXSP,2013-06-15 12:30:00,
2013-06-15 08:35:00,61.5,54.2,30.08,West,270,1.6,7.2,77,0.00,,,0.00,WUHU21623XXSP,2013-06-15 12:35:00,
2013-06-15 08:40:00,61.9,53.9,30.08,West,270,0.0,7.4,75,0.00,,,0.00,WUHU21623XXSP,2013-06-15 12:40:00,
2013-06-15 08:45:00,62.4,54.0,30.07,WSW,247,0.0,8.5,74,0.00,,,0.00,WUHU21623XXSP,2013-06-15 12:45:00,
2013-06-15 08:50:00,63.1,54.0,30.07,SW,225,0.0,8.5,72,0.00,,,0.00,WUHU21623XXSP,2013-06-15 12:50:00,
2013-06-15 08:55:00,63.7,54.5,30.07,WSW,247,4.7,7.6,72,0.00,,,0.00,WUHU21623XXSP,2013-06-15 12:55:00,
2013-06-15 09:00:00,64.2,54.3,30.08,West,270,1.6,7.8,70,0.00,,,0.00,WUHU21623XXSP,2013-06-15 13:00:00,
2013-06-15 09:05:00,64.2,53.5,30.08,SW,225,3.1,8.9,68,0.00,,,0.00,WUHU21623XXSP,2013-06-15 13:05:00,
2013-06-15 09:10:00,64.6,53.4,30.08,NNW,337,0.0,8.9,67,0.00,,,0.00,WUHU21623XXSP,2013-06-15 13:10:00,
2013-06-15 09:15:00,65.1,53.9,30.08,WSW,247,4.3,7.6,67,0.00,,,0.00,WUHU21623XXSP,2013-06-15 13:15:00,
2013-06-15 09:20:00,65.5,53.8,30.08,WNW,292,0.0,5.8,66,0.00,,,0.00,WUHU21623XXSP,2013-06-15 13:20:00,
2013-06-15 09:25:00,66.0,53.9,30.08,SSW,202,4.0,6.3,65,0.00,,,0.00,WUHU21623XXSP,2013-06-15 13:25:00,
2013-06-15 09:31:00,66.0,53.5,30.08,WSW,247,6.7,9.2,64,0.00,,,0.00,WUHU21623XXSP,2013-06-15 13:31:00,
2013-06-15 09:36:00,66.0,52.2,30.09,WSW,247,7.2,9.4,61,0.00,,,0.00,WUHU21623XXSP,2013-06-15 13:36:00,
2013-06-15 09:41:00,66.0,52.2,30.09,SSW,202,4.5,9.4,61,0.00,,,0.00,WUHU21623XXSP,2013-06-15 13:41:00,
2013-06-15 09:46:00,66.4,52.6,30.09,WSW,247,9.4,9.4,61,0.00,,,0.00,WUHU21623XXSP,2013-06-15 13:46:00,
2013-06-15 09:51:00,65.7,51.4,30.09,West,270,0.0,9.4,60,0.00,,,0.00,WUHU21623XXSP,2013-06-15 13:51:00,
2013-06-15 09:56:00,65.1,51.3,30.09,SW,225,0.0,5.8,61,0.00,,,0.00,WUHU21623XXSP,2013-06-15 13:56:00,
2013-06-15 10:01:00,65.3,51.9,30.09,SW,225,5.6,6.5,62,0.00,,,0.00,WUHU21623XXSP,2013-06-15 14:01:00,
2013-06-15 10:06:00,65.3,51.9,30.09,WSW,247,0.0,8.3,62,0.00,,,0.00,WUHU21623XXSP,2013-06-15 14:06:00,
2013-06-15 10:11:00,66.0,52.6,30.09,WSW,247,0.0,8.3,62,0.00,,,0.00,WUHU21623XXSP,2013-06-15 14:11:00,
2013-06-15 10:16:00,66.9,52.6,30.09,WNW,292,0.0,9.6,60,0.00,,,0.00,WUHU21623XXSP,2013-06-15 14:16:00,
2013-06-15 10:21:00,67.6,53.7,30.09,West,270,0.0,9.6,61,0.00,,,0.00,WUHU21623XXSP,2013-06-15 14:21:00,
2013-06-15 10:26:00,68.2,53.3,30.08,SSW,202,0.0,7.2,59,0.00,,,0.00,WUHU21623XXSP,2013-06-15 14:26:00,
2013-06-15 10:31:00,68.7,52.8,30.08,West,270,4.7,11.0,57,0.00,,,0.00,WUHU21623XXSP,2013-06-15 14:31:00,
2013-06-15 10:36:00,69.1,52.7,30.08,SW,225,12.8,12.8,56,0.00,,,0.00,WUHU21623XXSP,2013-06-15 14:36:00,
2013-06-15 10:41:00,69.3,52.9,30.08,WNW,292,4.7,13.6,56,0.00,,,0.00,WUHU21623XXSP,2013-06-15 14:41:00,
2013-06-15 10:46:00,69.1,51.7,30.08,West,270,8.1,13.6,54,0.00,,,0.00,WUHU21623XXSP,2013-06-15 14:46:00,
2013-06-15 10:51:00,69.1,51.7,30.09,WSW,247,12.8,13.2,54,0.00,,,0.00,WUHU21623XXSP,2013-06-15 14:51:00,
2013-06-15 10:56:00,69.6,52.7,30.08,WSW,247,3.4,12.8,55,0.00,,,0.00,WUHU21623XXSP,2013-06-15 14:56:00,
2013-06-15 11:01:00,69.6,52.7,30.08,WSW,247,6.3,12.8,55,0.00,,,0.00,WUHU21623XXSP,2013-06-15 15:01:00,
2013-06-15 11:06:00,70.3,52.9,30.08,WNW,292,9.6,11.4,54,0.00,,,0.00,WUHU21623XXSP,2013-06-15 15:06:00,
2013-06-15 11:11:00,70.3,52.4,30.08,WSW,247,0.0,11.4,53,0.00,,,0.00,WUHU21623XXSP,2013-06-15 15:11:00,
2013-06-15 11:16:00,70.5,51.5,30.08,WSW,247,6.3,14.3,51,0.00,,,0.00,WUHU21623XXSP,2013-06-15 15:16:00,
2013-06-15 11:21:00,70.9,51.3,30.08,SSW,202,2.2,14.3,50,0.00,,,0.00,WUHU21623XXSP,2013-06-15 15:21:00,
2013-06-15 11:26:00,71.2,50.5,30.08,SW,225,8.5,12.5,48,0.00,,,0.00,WUHU21623XXSP,2013-06-15 15:26:00,
2013-06-15 11:31:00,70.9,49.5,30.08,West,270,0.0,12.5,47,0.00,,,0.00,WUHU21623XXSP,2013-06-15 15:31:00,
2013-06-15 11:36:00,71.1,48.5,30.08,West,270,1.1,10.7,45,0.00,,,0.00,WUHU21623XXSP,2013-06-15 15:36:00,
2013-06-15 11:41:00,71.2,49.9,30.07,WNW,292,8.1,11.4,47,0.00,,,0.00,WUHU21623XXSP,2013-06-15 15:41:00,
2013-06-15 11:46:00,71.4,50.0,30.07,SSW,202,4.9,11.4,47,0.00,,,0.00,WUHU21623XXSP,2013-06-15 15:46:00,
2013-06-15 11:51:00,72.1,49.5,30.07,West,270,8.9,10.1,45,0.00,,,0.00,WUHU21623XXSP,2013-06-15 15:51:00,
2013-06-15 11:56:00,72.1,47.7,30.07,WSW,247,7.4,16.8,42,0.00,,,0.00,WUHU21623XXSP,2013-06-15 15:56:00,
2013-06-15 12:01:00,71.4,47.7,30.06,WSW,247,4.5,16.8,43,0.00,,,0.00,WUHU21623XXSP,2013-06-15 16:01:00,
2013-06-15 12:06:00,71.2,47.5,30.06,West,270,0.0,15.0,43,0.00,,,0.00,WUHU21623XXSP,2013-06-15 16:06:00,
2013-06-15 12:11:00,71.8,48.0,30.07,West,270,0.0,13.6,43,0.00,,,0.00,WUHU21623XXSP,2013-06-15 16:11:00,
2013-06-15 12:16:00,72.1,47.7,30.06,SW,225,4.9,13.6,42,0.00,,,0.00,WUHU21623XXSP,2013-06-15 16:16:00,
2013-06-15 12:21:00,72.3,47.9,30.06,West,270,0.0,13.6,42,0.00,,,0.00,WUHU21623XXSP,2013-06-15 16:21:00,
2013-06-15 12:26:00,72.5,48.0,30.06,WSW,247,12.1,14.1,42,0.00,,,0.00,WUHU21623XXSP,2013-06-15 16:26:00,
2013-06-15 12:31:00,72.7,46.3,30.06,WSW,247,6.5,14.5,39,0.00,,,0.00,WUHU21623XXSP,2013-06-15 16:31:00,
2013-06-15 12:36:00,73.0,47.3,30.06,SW,225,6.9,14.5,40,0.00,,,0.00,WUHU21623XXSP,2013-06-15 16:36:00,
2013-06-15 12:41:00,72.9,47.2,30.06,WSW,247,0.0,11.2,40,0.00,,,0.00,WUHU21623XXSP,2013-06-15 16:41:00,
2013-06-15 12:46:00,73.2,52.3,30.06,SW,225,16.6,16.6,48,0.00,,,0.00,WUHU21623XXSP,2013-06-15 16:46:00,
2013-06-15 12:51:00,73.0,53.3,30.06,SSW,202,3.4,17.2,50,0.00,,,0.00,WUHU21623XXSP,2013-06-15 16:51:00,
2013-06-15 12:56:00,73.0,53.8,30.06,SSW,202,7.8,17.2,51,0.00,,,0.00,WUHU21623XXSP,2013-06-15 16:56:00,
2013-06-15 13:01:00,72.7,53.0,30.06,SSW,202,2.0,18.3,50,0.00,,,0.00,WUHU21623XXSP,2013-06-15 17:01:00,
2013-06-15 13:06:00,72.7,54.0,30.06,SW,225,0.0,18.3,52,0.00,,,0.00,WUHU21623XXSP,2013-06-15 17:06:00,
2013-06-15 13:11:00,72.9,53.6,30.07,WSW,247,6.9,15.9,51,0.00,,,0.00,WUHU21623XXSP,2013-06-15 17:11:00,
2013-06-15 13:16:00,72.7,54.0,30.07,SW,225,0.0,15.9,52,0.00,,,0.00,WUHU21623XXSP,2013-06-15 17:16:00,
2013-06-15 13:21:00,73.2,53.9,30.07,West,270,8.5,15.2,51,0.00,,,0.00,WUHU21623XXSP,2013-06-15 17:21:00,
2013-06-15 13:26:00,73.0,52.7,30.07,SW,225,1.3,12.8,49,0.00,,,0.00,WUHU21623XXSP,2013-06-15 17:26:00,
2013-06-15 13:31:00,73.0,52.7,30.06,WSW,247,10.1,12.8,49,0.00,,,0.00,WUHU21623XXSP,2013-06-15 17:31:00,
2013-06-15 13:36:00,73.0,52.1,30.06,WSW,247,5.1,12.5,48,0.00,,,0.00,WUHU21623XXSP,2013-06-15 17:36:00,
2013-06-15 13:41:00,73.0,53.3,30.06,SW,225,15.9,15.9,50,0.00,,,0.00,WUHU21623XXSP,2013-06-15 17:41:00,
2013-06-15 13:46:00,72.3,53.1,30.06,SW,225,7.2,17.9,51,0.00,,,0.00,WUHU21623XXSP,2013-06-15 17:46:00,
2013-06-15 13:51:00,72.7,54.0,30.06,SW,225,10.7,17.9,52,0.00,,,0.00,WUHU21623XXSP,2013-06-15 17:51:00,
2013-06-15 13:56:00,73.0,54.3,30.06,SW,225,7.4,15.4,52,0.00,,,0.00,WUHU21623XXSP,2013-06-15 17:56:00,
2013-06-15 14:01:00,73.2,54.4,30.06,SW,225,8.5,13.6,52,0.00,,,0.00,WUHU21623XXSP,2013-06-15 18:01:00,
2013-06-15 14:06:00,73.4,54.6,30.05,SW,225,7.4,16.3,52,0.00,,,0.00,WUHU21623XXSP,2013-06-15 18:06:00,
2013-06-15 14:11:00,73.2,54.4,30.05,WSW,247,10.3,16.3,52,0.00,,,0.00,WUHU21623XXSP,2013-06-15 18:11:00,
2013-06-15 14:16:00,73.4,54.6,30.05,WSW,247,8.3,14.3,52,0.00,,,0.00,WUHU21623XXSP,2013-06-15 18:16:00,
2013-06-15 14:21:00,73.0,54.3,30.05,SSW,202,10.5,14.3,52,0.00,,,0.00,WUHU21623XXSP,2013-06-15 18:21:00,
2013-06-15 14:26:00,72.9,54.1,30.05,WSW,247,4.7,14.3,52,0.00,,,0.00,WUHU21623XXSP,2013-06-15 18:26:00,
2013-06-15 14:31:00,73.4,54.6,30.05,SW,225,10.3,14.3,52,0.00,,,0.00,WUHU21623XXSP,2013-06-15 18:31:00,
2013-06-15 14:36:00,73.2,54.4,30.05,WSW,247,9.8,15.7,52,0.00,,,0.00,WUHU21623XXSP,2013-06-15 18:36:00,
2013-06-15 14:41:00,72.9,54.6,30.05,SSW,202,10.5,15.7,53,0.00,,,0.00,WUHU21623XXSP,2013-06-15 18:41:00,
2013-06-15 14:46:00,72.1,53.5,30.05,South,180,6.7,16.1,52,0.00,,,0.00,WUHU21623XXSP,2013-06-15 18:46:00,
2013-06-15 14:51:00,71.4,53.3,30.05,SSW,202,12.3,16.8,53,0.00,,,0.00,WUHU21623XXSP,2013-06-15 18:51:00,
2013-06-15 14:56:00,71.2,53.7,30.05,SW,225,17.7,17.7,54,0.00,,,0.00,WUHU21623XXSP,2013-06-15 18:56:00,
2013-06-15 15:01:00,71.4,54.3,30.05,WSW,247,9.2,17.7,55,0.00,,,0.00,WUHU21623XXSP,2013-06-15 19:01:00,
2013-06-15 15:06:00,72.0,54.3,30.04,WSW,247,10.3,15.9,54,0.00,,,0.00,WUHU21623XXSP,2013-06-15 19:06:00,
2013-06-15 15:11:00,72.0,53.3,30.04,SSW,202,12.5,18.6,52,0.00,,,0.00,WUHU21623XXSP,2013-06-15 19:11:00,
2013-06-15 15:16:00,72.1,54.0,30.04,WSW,247,3.6,18.6,53,0.00,,,0.00,WUHU21623XXSP,2013-06-15 19:16:00,
2013-06-15 15:21:00,72.1,53.5,30.04,SSW,202,7.8,15.2,52,0.00,,,0.00,WUHU21623XXSP,2013-06-15 19:21:00,
2013-06-15 15:26:00,72.1,53.5,30.04,SW,225,13.9,14.3,52,0.00,,,0.00,WUHU21623XXSP,2013-06-15 19:26:00,
2013-06-15 15:31:00,71.8,52.6,30.04,South,180,11.4,13.9,51,0.00,,,0.00,WUHU21623XXSP,2013-06-15 19:31:00,
2013-06-15 15:36:00,71.4,51.8,30.04,WSW,247,7.4,14.5,50,0.00,,,0.00,WUHU21623XXSP,2013-06-15 19:36:00,
2013-06-15 15:41:00,71.4,51.8,30.04,WSW,247,8.5,14.5,50,0.00,,,0.00,WUHU21623XXSP,2013-06-15 19:41:00,
2013-06-15 15:46:00,72.3,52.6,30.04,WSW,247,6.0,12.5,50,0.00,,,0.00,WUHU21623XXSP,2013-06-15 19:46:00,
2013-06-15 15:51:00,72.5,52.8,30.04,WSW,247,4.7,12.5,50,0.00,,,0.00,WUHU21623XXSP,2013-06-15 19:51:00,
2013-06-15 15:56:00,72.5,52.2,30.03,WSW,247,10.1,14.8,49,0.00,,,0.00,WUHU21623XXSP,2013-06-15 19:56:00,
2013-06-15 16:01:00,72.5,51.6,30.03,WSW,247,7.2,14.8,48,0.00,,,0.00,WUHU21623XXSP,2013-06-15 20:01:00,
2013-06-15 16:06:00,72.7,52.4,30.03,SW,225,8.7,13.6,49,0.00,,,0.00,WUHU21623XXSP,2013-06-15 20:06:00,
2013-06-15 16:11:00,72.3,51.4,30.03,WSW,247,5.4,13.0,48,0.00,,,0.00,WUHU21623XXSP,2013-06-15 20:11:00,
2013-06-15 16:16:00,71.6,51.4,30.03,SW,225,2.5,14.8,49,0.00,,,0.00,WUHU21623XXSP,2013-06-15 20:16:00,
2013-06-15 16:21:00,71.4,51.8,30.03,SW,225,6.7,14.8,50,0.00,,,0.00,WUHU21623XXSP,2013-06-15 20:21:00,
2013-06-15 16:26:00,71.2,52.2,30.03,SSW,202,2.5,11.2,51,0.00,,,0.00,WUHU21623XXSP,2013-06-15 20:26:00,
2013-06-15 16:31:00,71.2,52.2,30.03,SW,225,8.1,16.6,51,0.00,,,0.00,WUHU21623XXSP,2013-06-15 20:31:00,
2013-06-15 16:36:00,71.4,51.8,30.03,WSW,247,0.0,16.6,50,0.00,,,0.00,WUHU21623XXSP,2013-06-15 20:36:00,
2013-06-15 16:41:00,72.0,51.7,30.02,WSW,247,2.5,14.1,49,0.00,,,0.00,WUHU21623XXSP,2013-06-15 20:41:00,
2013-06-15 16:46:00,71.8,52.6,30.02,WSW,247,13.6,18.3,51,0.00,,,0.00,WUHU21623XXSP,2013-06-15 20:46:00,
2013-06-15 16:51:00,71.4,51.8,30.02,SW,225,17.4,18.3,50,0.00,,,0.00,WUHU21623XXSP,2013-06-15 20:51:00,
2013-06-15 16:56:00,70.9,51.8,30.02,WSW,247,5.1,18.3,51,0.00,,,0.00,WUHU21623XXSP,2013-06-15 20:56:00,
2013-06-15 17:01:00,70.3,51.4,30.02,SSW,202,7.4,16.8,51,0.00,,,0.00,WUHU21623XXSP,2013-06-15 21:01:00,
2013-06-15 17:06:00,70.3,51.9,30.02,West,270,7.2,16.8,52,0.00,,,0.00,WUHU21623XXSP,2013-06-15 21:06:00,
2013-06-15 17:11:00,70.2,52.2,30.02,SW,225,0.0,14.8,53,0.00,,,0.00,WUHU21623XXSP,2013-06-15 21:11:00,
2013-06-15 17:16:00,70.2,52.7,30.02,WSW,247,8.1,11.6,54,0.00,,,0.00,WUHU21623XXSP,2013-06-15 21:16:00,
2013-06-15 17:21:00,70.0,51.0,30.02,SW,225,0.0,13.9,51,0.00,,,0.00,WUHU21623XXSP,2013-06-15 21:21:00,
2013-06-15 17:26:00,70.0,51.5,30.02,WSW,247,6.9,14.3,52,0.00,,,0.00,WUHU21623XXSP,2013-06-15 21:26:00,
2013-06-15 17:31:00,70.5,52.0,30.01,SW,225,8.1,14.8,52,0.00,,,0.00,WUHU21623XXSP,2013-06-15 21:31:00,
2013-06-15 17:36:00,70.7,51.2,30.01,SSW,202,8.3,14.8,50,0.00,,,0.00,WUHU21623XXSP,2013-06-15 21:36:00,
2013-06-15 17:41:00,70.7,51.2,30.01,SW,225,13.2,15.9,50,0.00,,,0.00,WUHU21623XXSP,2013-06-15 21:41:00,
2013-06-15 17:46:00,70.5,51.0,30.01,SW,225,4.3,16.6,50,0.00,,,0.00,WUHU21623XXSP,2013-06-15 21:46:00,
2013-06-15 17:51:00,70.3,51.4,30.01,SW,225,2.2,16.6,51,0.00,,,0.00,WUHU21623XXSP,2013-06-15 21:51:00,
2013-06-15 17:56:00,70.2,51.2,30.01,SW,225,10.1,11.4,51,0.00,,,0.00,WUHU21623XXSP,2013-06-15 21:56:00,
2013-06-15 18:01:00,69.8,50.9,30.01,SW,225,10.3,11.4,51,0.00,,,0.00,WUHU21623XXSP,2013-06-15 22:01:00,
2013-06-15 18:06:00,69.6,51.2,30.01,SW,225,8.9,12.8,52,0.00,,,0.00,WUHU21623XXSP,2013-06-15 22:06:00,
2013-06-15 18:11:00,69.4,50.5,30.01,WSW,247,13.6,14.1,51,0.00,,,0.00,WUHU21623XXSP,2013-06-15 22:11:00,
2013-06-15 18:16:00,69.3,50.4,30.01,WSW,247,10.5,14.1,51,0.00,,,0.00,WUHU21623XXSP,2013-06-15 22:16:00,
2013-06-15 18:21:00,69.3,50.4,30.01,West,270,9.8,13.6,51,0.00,,,0.00,WUHU21623XXSP,2013-06-15 22:21:00,
2013-06-15 18:26:00,69.4,51.0,30.01,SW,225,6.7,11.2,52,0.00,,,0.00,WUHU21623XXSP,2013-06-15 22:26:00,
2013-06-15 18:31:00,69.6,51.2,30.01,SW,225,9.8,11.2,52,0.00,,,0.00,WUHU21623XXSP,2013-06-15 22:31:00,
2013-06-15 18:36:00,69.6,51.7,30.01,WSW,247,5.1,11.9,53,0.00,,,0.00,WUHU21623XXSP,2013-06-15 22:36:00,
2013-06-15 18:41:00,69.4,51.0,30.01,SW,225,11.0,13.9,52,0.00,,,0.00,WUHU21623XXSP,2013-06-15 22:41:00,
2013-06-15 18:46:00,69.4,51.5,30.01,WSW,247,0.0,13.9,53,0.00,,,0.00,WUHU21623XXSP,2013-06-15 22:46:00,
2013-06-15 18:51:00,69.4,52.0,30.01,WSW,247,10.7,11.9,54,0.00,,,0.00,WUHU21623XXSP,2013-06-15 22:51:00,
2013-06-15 18:56:00,69.3,51.9,30.01,WSW,247,3.8,10.7,54,0.00,,,0.00,WUHU21623XXSP,2013-06-15 22:56:00,
2013-06-15 19:01:00,68.7,51.4,30.01,WSW,247,6.0,12.8,54,0.00,,,0.00,WUHU21623XXSP,2013-06-15 23:01:00,
2013-06-15 19:06:00,68.5,51.7,30.01,SW,225,6.0,12.8,55,0.00,,,0.00,WUHU21623XXSP,2013-06-15 23:06:00,
2013-06-15 19:11:00,68.2,51.8,30.00,SW,225,9.8,10.1,56,0.00,,,0.00,WUHU21623XXSP,2013-06-15 23:11:00,
2013-06-15 19:16:00,67.8,52.0,30.00,SW,225,13.4,13.4,57,0.00,,,0.00,WUHU21623XXSP,2013-06-15 23:16:00,
2013-06-15 19:21:00,67.6,52.3,30.00,SW,225,0.0,13.4,58,0.00,,,0.00,WUHU21623XXSP,2013-06-15 23:21:00,
2013-06-15 19:26:00,67.3,52.5,30.00,WSW,247,5.8,9.8,59,0.00,,,0.00,WUHU21623XXSP,2013-06-15 23:26:00,
2013-06-15 19:31:00,67.1,52.3,30.00,SW,225,0.0,9.8,59,0.00,,,0.00,WUHU21623XXSP,2013-06-15 23:31:00,
2013-06-15 19:36:00,66.9,52.6,30.01,WSW,247,0.0,8.1,60,0.00,,,0.00,WUHU21623XXSP,2013-06-15 23:36:00,
2013-06-15 19:41:00,66.9,52.6,30.00,SW,225,0.0,7.8,60,0.00,,,0.00,WUHU21623XXSP,2013-06-15 23:41:00,
2013-06-15 19:46:00,66.7,52.5,30.01,SSW,202,0.0,7.8,60,0.00,,,0.00,WUHU21623XXSP,2013-06-15 23:46:00,
2013-06-15 19:51:00,66.6,52.7,30.01,SW,225,0.0,8.9,61,0.00,,,0.00,WUHU21623XXSP,2013-06-15 23:51:00,
2013-06-15 19:56:00,66.0,52.2,30.01,SW,225,3.1,9.2,61,0.00,,,0.00,WUHU21623XXSP,2013-06-15 23:56:00,
2013-06-15 20:01:00,65.8,52.4,30.01,SW,225,4.0,9.2,62,0.00,,,0.00,WUHU21623XXSP,2013-06-16 00:01:00,
2013-06-15 20:06:00,65.5,52.5,30.01,SW,225,0.0,7.6,63,0.00,,,0.00,WUHU21623XXSP,2013-06-16 00:06:00,
2013-06-15 20:11:00,65.3,52.8,30.01,SW,225,6.7,7.6,64,0.00,,,0.00,WUHU21623XXSP,2013-06-16 00:11:00,
2013-06-15 20:16:00,65.1,52.6,30.01,South,180,0.0,7.6,64,0.00,,,0.00,WUHU21623XXSP,2013-06-16 00:16:00,
2013-06-15 20:21:00,64.9,52.8,30.01,SW,225,0.0,7.6,65,0.00,,,0.00,WUHU21623XXSP,2013-06-16 00:21:00,
2013-06-15 20:26:00,64.6,52.9,30.01,SW,225,0.0,6.3,66,0.00,,,0.00,WUHU21623XXSP,2013-06-16 00:26:00,
2013-06-15 20:31:00,64.4,52.8,30.01,SW,225,0.0,5.4,66,0.00,,,0.00,WUHU21623XXSP,2013-06-16 00:31:00,
2013-06-15 20:36:00,64.2,53.0,30.01,SSW,202,0.0,7.6,67,0.00,,,0.00,WUHU21623XXSP,2013-06-16 00:36:00,
2013-06-15 20:41:00,64.2,53.0,30.01,WSW,247,3.8,8.1,67,0.00,,,0.00,WUHU21623XXSP,2013-06-16 00:41:00,
2013-06-15 20:46:00,64.0,53.3,30.00,SW,225,0.0,8.1,68,0.00,,,0.00,WUHU21623XXSP,2013-06-16 00:46:00,
2013-06-15 20:51:00,63.9,53.1,30.00,SW,225,0.0,6.0,68,0.00,,,0.00,WUHU21623XXSP,2013-06-16 00:51:00,
2013-06-15 20:56:00,63.7,53.3,30.00,WSW,247,0.0,6.0,69,0.00,,,0.00,WUHU21623XXSP,2013-06-16 00:56:00,
2013-06-15 21:01:00,63.7,53.3,30.00,WSW,247,0.0,5.4,69,0.00,,,0.00,WUHU21623XXSP,2013-06-16 01:01:00,
2013-06-15 21:06:00,63.5,53.2,30.00,SW,225,0.9,4.0,69,0.00,,,0.00,WUHU21623XXSP,2013-06-16 01:06:00,
2013-06-15 21:11:00,63.5,53.2,30.00,SW,225,2.0,4.0,69,0.00,,,0.00,WUHU21623XXSP,2013-06-16 01:11:00,
2013-06-15 21:16:00,63.3,53.8,30.00,SW,225,2.0,4.3,71,0.00,,,0.00,WUHU21623XXSP,2013-06-16 01:16:00,
2013-06-15 21:21:00,63.3,53.8,30.00,WSW,247,0.0,4.3,71,0.00,,,0.00,WUHU21623XXSP,2013-06-16 01:21:00,
2013-06-15 21:26:00,63.3,53.4,30.00,SW,225,0.0,3.4,70,0.00,,,0.00,WUHU21623XXSP,2013-06-16 01:26:00,
2013-06-15 21:31:00,63.5,53.6,30.00,SW,225,5.1,5.1,70,0.00,,,0.00,WUHU21623XXSP,2013-06-16 01:31:00,
2013-06-15 21:36:00,63.7,53.8,29.99,SW,225,0.0,5.1,70,0.00,,,0.00,WUHU21623XXSP,2013-06-16 01:36:00,
2013-06-15 21:41:00,63.7,54.1,29.99,WSW,247,0.0,3.8,71,0.00,,,0.00,WUHU21623XXSP,2013-06-16 01:41:00,
2013-06-15 21:46:00,63.7,54.1,29.99,SW,225,0.0,2.0,71,0.00,,,0.00,WUHU21623XXSP,2013-06-16 01:46:00,
2013-06-15 21:51:00,63.7,54.1,29.99,SW,225,0.0,0.0,71,0.00,,,0.00,WUHU21623XXSP,2013-06-16 01:51:00,
2013-06-15 21:56:00,63.9,54.3,29.99,WSW,247,0.9,0.9,71,0.00,,,0.00,WUHU21623XXSP,2013-06-16 01:56:00,
2013-06-15 22:01:00,64.0,54.5,30.00,SW,225,0.0,6.0,71,0.00,,,0.00,WUHU21623XXSP,2013-06-16 02:01:00,
2013-06-15 22:06:00,64.2,54.7,29.99,SW,225,0.0,6.0,71,0.00,,,0.00,WUHU21623XXSP,2013-06-16 02:06:00,
2013-06-15 22:11:00,64.2,54.3,29.99,SW,225,0.0,4.0,70,0.00,,,0.00,WUHU21623XXSP,2013-06-16 02:11:00,
2013-06-15 22:16:00,64.2,54.3,29.99,SW,225,0.0,0.0,70,0.00,,,0.00,WUHU21623XXSP,2013-06-16 02:16:00,
2013-06-15 22:21:00,64.2,54.3,29.99,SSW,202,0.0,4.3,70,0.00,,,0.00,WUHU21623XXSP,2013-06-16 02:21:00,
2013-06-15 22:26:00,64.2,54.7,29.99,SW,225,0.0,4.3,71,0.00,,,0.00,WUHU21623XXSP,2013-06-16 02:26:00,
2013-06-15 22:31:00,64.0,54.5,29.98,SSW,202,0.0,0.0,71,0.00,,,0.00,WUHU21623XXSP,2013-06-16 02:31:00,
2013-06-15 22:36:00,63.9,54.3,29.98,SSW,202,0.0,0.0,71,0.00,,,0.00,WUHU21623XXSP,2013-06-16 02:36:00,
2013-06-15 22:41:00,63.7,54.1,29.98,South,180,0.0,0.0,71,0.00,,,0.00,WUHU21623XXSP,2013-06-16 02:41:00,
2013-06-15 22:46:00,63.5,54.0,29.98,SSW,202,0.0,3.8,71,0.00,,,0.00,WUHU21623XXSP,2013-06-16 02:46:00,
2013-06-15 22:51:00,63.3,54.1,29.98,SSW,202,0.0,3.8,72,0.00,,,0.00,WUHU21623XXSP,2013-06-16 02:51:00,
2013-06-15 22:56:00,63.3,54.5,29.98,SSW,202,0.0,4.7,73,0.00,,,0.00,WUHU21623XXSP,2013-06-16 02:56:00,
2013-06-15 23:01:00,63.1,54.3,29.98,SW,225,0.0,4.7,73,0.00,,,0.00,WUHU21623XXSP,2013-06-16 03:01:00,
2013-06-15 23:06:00,63.0,54.5,29.98,SW,225,0.0,6.0,74,0.00,,,0.00,WUHU21623XXSP,2013-06-16 03:06:00,
2013-06-15 23:11:00,62.8,54.7,29.98,SW,225,0.0,6.0,75,0.00,,,0.00,WUHU21623XXSP,2013-06-16 03:11:00,
2013-06-15 23:16:00,62.8,54.7,29.98,SSW,202,0.0,0.0,75,0.00,,,0.00,WUHU21623XXSP,2013-06-16 03:16:00,
2013-06-15 23:21:00,62.4,54.3,29.98,SSW,202,0.0,0.0,75,0.00,,,0.00,WUHU21623XXSP,2013-06-16 03:21:00,
2013-06-15 23:26:00,62.4,54.7,29.98,SW,225,0.0,0.0,76,0.00,,,0.00,WUHU21623XXSP,2013-06-16 03:26:00,
2013-06-15 23:31:00,62.2,54.5,29.98,SW,225,0.0,0.0,76,0.00,,,0.00,WUHU21623XXSP,2013-06-16 03:31:00,
2013-06-15 23:36:00,62.2,54.9,29.98,SW,225,0.0,0.0,77,0.00,,,0.00,WUHU21623XXSP,2013-06-16 03:36:00,
2013-06-15 23:41:00,62.2,54.9,29.98,SW,225,0.0,0.0,77,0.00,,,0.00,WUHU21623XXSP,2013-06-16 03:41:00,
2013-06-15 23:46:00,61.9,54.6,29.98,SW,225,0.0,0.0,77,0.00,,,0.00,WUHU21623XXSP,2013-06-16 03:46:00,
2013-06-15 23:51:00,61.9,54.6,29.98,SW,225,0.0,0.0,77,0.00,,,0.00,WUHU21623XXSP,2013-06-16 03:51:00,
2013-06-15 23:56:00,61.9,54.9,29.98,SW,225,0.0,0.0,78,0.00,,,0.00,WUHU21623XXSP,2013-06-16 03:56:00,